createdAt,value
2019-04-23T00:02:23.242Z,5.67
2019-04-23T00:05:16.934Z,7.83
2019-04-23T00:08:11.263Z,12.13
2019-04-23T00:10:59.135Z,7.47
2019-04-23T00:13:49.847Z,6.77
2019-04-23T00:16:40.894Z,4.33
2019-04-23T00:19:33.063Z,6.30
2019-04-23T00:22:43.818Z,4.80
2019-04-23T00:26:13.029Z,4.93
2019-04-23T00:29:07.434Z,5.43
2019-04-23T00:31:53.344Z,5.30
2019-04-23T00:34:51.442Z,4.70
2019-04-23T00:40:25.820Z,6.53
2019-04-23T00:43:15.104Z,4.73
2019-04-23T00:45:59.322Z,6.87
2019-04-23T00:48:59.195Z,6.73
2019-04-23T00:51:34.737Z,6.20
2019-04-23T00:54:22.548Z,5.23
2019-04-23T01:00:02.066Z,6.67
2019-04-23T01:02:53.335Z,4.60
2019-04-23T01:05:52.684Z,4.33
2019-04-23T01:08:30.217Z,6.20
2019-04-23T01:14:17.686Z,4.90
2019-04-23T01:17:09.907Z,5.73
2019-04-23T01:20:01.621Z,8.50
2019-04-23T01:22:33.506Z,8.40
2019-04-23T01:25:43.673Z,6.30
2019-04-23T01:28:48.295Z,6.80
2019-04-23T01:31:44.547Z,5.50
2019-04-23T01:34:31.414Z,6.30
2019-04-23T01:37:26.801Z,5.40
2019-04-23T01:40:13.594Z,4.73
2019-04-23T01:42:58.717Z,6.33
2019-04-23T01:45:50.202Z,5.10
2019-04-23T01:48:50.294Z,6.03
2019-04-23T01:51:42.351Z,4.47
2019-04-23T01:54:25.757Z,12.17
2019-04-23T01:57:21.501Z,6.30
2019-04-23T02:00:13.396Z,4.27
2019-04-23T02:03:06.072Z,4.63
2019-04-23T02:05:53.520Z,5.90
2019-04-23T02:08:39.923Z,5.50
2019-04-23T02:11:28.170Z,10.70
2019-04-23T02:17:10.308Z,7.00
2019-04-23T02:20:14.439Z,7.60
2019-04-23T02:23:14.912Z,6.30
2019-04-23T02:28:46.289Z,6.23
2019-04-23T02:34:42.948Z,5.40
2019-04-23T02:48:54.564Z,6.47
2019-04-23T02:51:29.142Z,5.00
2019-04-23T02:54:33.132Z,5.83
2019-04-23T02:57:08.885Z,6.07
2019-04-23T03:00:16.140Z,5.10
2019-04-23T03:05:45.976Z,5.83
2019-04-23T03:08:36.372Z,5.10
2019-04-23T03:11:25.850Z,6.10
2019-04-23T03:17:13.095Z,6.67
2019-04-23T03:23:47.137Z,4.97
2019-04-23T03:26:42.147Z,7.30
2019-04-23T03:40:21.114Z,7.33
2019-04-23T03:43:26.264Z,8.73
2019-04-23T03:46:16.035Z,4.87
2019-04-23T03:51:42.881Z,10.63
2019-04-23T03:54:42.284Z,7.20
2019-04-23T03:57:30.925Z,9.13
2019-04-23T04:00:31.642Z,5.20
2019-04-23T04:03:10.361Z,7.73
2019-04-23T04:05:58.243Z,12.90
2019-04-23T04:11:33.733Z,9.00
2019-04-23T04:14:32.205Z,6.43
2019-04-23T04:17:15.911Z,7.50
2019-04-23T04:20:11.106Z,7.20
2019-04-23T04:23:19.506Z,7.00
2019-04-23T04:25:49.896Z,7.07
2019-04-23T04:31:36.895Z,8.17
2019-04-23T04:40:07.866Z,7.00
2019-04-23T04:43:00.138Z,7.37
2019-04-23T04:48:37.729Z,11.50
2019-04-23T04:51:28.979Z,12.03
2019-04-23T04:57:02.626Z,6.90
2019-04-23T05:00:06.799Z,7.40
2019-04-23T05:03:18.047Z,8.60
2019-04-23T05:08:29.021Z,7.20
2019-04-23T05:14:08.424Z,11.83
2019-04-23T05:19:57.423Z,8.50
2019-04-23T05:22:40.779Z,14.10
2019-04-23T05:25:16.926Z,9.17
2019-04-23T05:31:05.736Z,10.97
2019-04-23T05:34:00.298Z,11.60
2019-04-23T05:39:35.376Z,9.27
2019-04-23T05:42:26.069Z,10.57
2019-04-23T05:45:16.400Z,12.33
2019-04-23T05:48:12.974Z,11.67
2019-04-23T05:56:39.709Z,8.60
2019-04-23T05:59:29.927Z,12.67
2019-04-23T06:02:23.208Z,8.30
2019-04-23T06:05:14.750Z,9.97
2019-04-23T06:08:09.425Z,15.13
2019-04-23T06:10:55.602Z,12.60
2019-04-23T06:13:48.078Z,9.37
2019-04-23T06:16:35.645Z,18.10
2019-04-23T06:19:21.533Z,11.07
2019-04-23T06:25:22.094Z,8.07
2019-04-23T06:28:01.798Z,11.53
2019-04-23T06:30:56.080Z,18.80
2019-04-23T06:33:44.332Z,11.90
2019-04-23T06:36:33.345Z,17.30
2019-04-23T06:39:26.256Z,11.07
2019-04-23T06:42:14.076Z,15.10
2019-04-23T06:45:00.999Z,10.33
2019-04-23T06:48:02.257Z,8.70
2019-04-23T06:50:48.817Z,14.90
2019-04-23T06:53:37.443Z,10.80
2019-04-23T06:56:33.461Z,12.10
2019-04-23T06:59:19.969Z,9.03
2019-04-23T07:02:11.801Z,17.67
2019-04-23T07:05:06.618Z,10.40
2019-04-23T07:08:04.291Z,14.27
2019-04-23T07:10:40.604Z,12.00
2019-04-23T07:13:44.909Z,15.37
2019-04-23T07:16:34.869Z,13.80
2019-04-23T07:19:17.724Z,11.43
2019-04-23T07:22:08.147Z,16.60
2019-04-23T07:24:58.036Z,9.70
2019-04-23T07:27:40.890Z,16.07
2019-04-23T07:30:32.924Z,12.67
2019-04-23T07:33:31.106Z,16.33
2019-04-23T07:36:17.238Z,9.37
2019-04-23T07:42:35.356Z,12.07
2019-04-23T07:45:54.836Z,12.10
2019-04-23T07:48:34.106Z,11.60
2019-04-23T07:51:44.858Z,14.83
2019-04-23T07:54:22.843Z,16.77
2019-04-23T08:00:00.730Z,12.43
2019-04-23T08:03:01.898Z,9.17
2019-04-23T08:05:39.701Z,8.10
2019-04-23T08:08:30.314Z,11.50
2019-04-23T08:11:33.065Z,11.27
2019-04-23T08:14:08.368Z,16.30
2019-04-23T08:17:04.326Z,9.57
2019-04-23T08:20:03.068Z,14.60
2019-04-23T08:22:45.800Z,11.93
2019-04-23T08:26:10.137Z,15.70
2019-04-23T08:29:04.101Z,11.30
2019-04-23T08:31:27.473Z,11.10
2019-04-23T08:34:17.135Z,16.57
2019-04-23T08:37:06.435Z,14.93
2019-04-23T08:39:47.058Z,13.23
2019-04-23T08:42:45.747Z,16.03
2019-04-23T08:45:53.615Z,16.57
2019-04-23T08:48:50.283Z,12.67
2019-04-23T08:51:45.877Z,13.27
2019-04-23T08:54:47.023Z,12.30
2019-04-23T09:00:09.226Z,13.87
2019-04-23T09:03:00.552Z,12.40
2019-04-23T09:05:56.232Z,11.63
2019-04-23T09:08:37.457Z,11.20
2019-04-23T09:11:44.122Z,17.90
2019-04-23T09:14:08.759Z,14.00
2019-04-23T09:17:28.933Z,14.37
2019-04-23T09:20:18.542Z,12.87
2019-04-23T09:22:50.345Z,11.73
2019-04-23T09:25:47.722Z,14.10
2019-04-23T09:28:39.697Z,11.63
2019-04-23T09:38:05.519Z,15.60
2019-04-23T09:47:40.931Z,12.50
2019-04-23T09:50:33.100Z,18.17
2019-04-23T09:56:06.716Z,14.97
2019-04-23T09:59:02.319Z,27.83
2019-04-23T10:01:45.172Z,22.83
2019-04-23T10:04:27.901Z,15.03
2019-04-23T10:07:16.452Z,13.27
2019-04-23T10:09:55.690Z,11.07
2019-04-23T10:12:46.182Z,13.80
2019-04-23T10:15:40.392Z,20.03
2019-04-23T10:18:26.852Z,12.03
2019-04-23T10:20:57.321Z,19.33
2019-04-23T10:23:47.462Z,19.53
2019-04-23T10:26:37.941Z,16.73
2019-04-23T10:29:13.857Z,12.80
2019-04-23T10:32:03.848Z,19.83
2019-04-23T10:35:05.299Z,14.20
2019-04-23T10:37:50.943Z,13.13
2019-04-23T10:40:39.887Z,13.47
2019-04-23T10:43:25.132Z,11.67
2019-04-23T10:46:53.080Z,12.63
2019-04-23T10:52:53.753Z,20.00
2019-04-23T10:55:44.728Z,18.83
2019-04-23T10:58:31.852Z,11.67
2019-04-23T11:01:20.841Z,13.03
2019-04-23T11:13:25.262Z,14.03
2019-04-23T11:16:40.038Z,12.10
2019-04-23T11:21:58.441Z,9.63
2019-04-23T11:24:53.402Z,12.07
2019-04-23T11:27:36.229Z,11.93
2019-04-23T11:47:23.196Z,13.93
2019-04-23T11:50:13.972Z,11.60
2019-04-23T11:53:00.278Z,11.20
2019-04-23T11:58:37.596Z,9.97
2019-04-23T12:01:49.221Z,14.43
2019-04-23T12:08:01.076Z,12.80
2019-04-23T12:14:30.535Z,9.60
2019-04-23T12:17:28.944Z,12.50
2019-04-23T12:20:03.343Z,9.10
2019-04-23T12:22:58.768Z,9.17
2019-04-23T12:28:40.833Z,9.77
2019-04-23T12:31:28.636Z,9.03
2019-04-23T12:33:57.692Z,9.90
2019-04-23T12:36:48.378Z,9.00
2019-04-23T12:39:27.051Z,11.23
2019-04-23T12:42:08.577Z,9.67
2019-04-23T12:44:52.544Z,8.87
2019-04-23T12:47:53.642Z,10.97
2019-04-23T12:50:45.040Z,9.00
2019-04-23T12:56:08.839Z,11.03
2019-04-23T12:58:51.584Z,10.63
2019-04-23T13:01:55.897Z,13.73
2019-04-23T13:04:44.904Z,12.87
2019-04-23T13:07:40.117Z,10.63
2019-04-23T13:10:21.076Z,15.83
2019-04-23T13:13:16.671Z,14.30
2019-04-23T13:16:05.646Z,10.13
2019-04-23T13:18:50.681Z,10.00
2019-04-23T13:24:54.169Z,10.40
2019-04-23T13:27:57.259Z,18.03
2019-04-23T13:33:39.065Z,14.77
2019-04-23T13:39:17.962Z,12.23
2019-04-23T13:42:07.631Z,8.57
2019-04-23T13:44:56.015Z,9.10
2019-04-23T13:47:53.237Z,10.60
2019-04-23T13:56:25.227Z,11.57
2019-04-23T13:59:18.830Z,13.73
2019-04-23T14:02:07.736Z,11.17
2019-04-23T14:05:12.346Z,16.60
2019-04-23T14:08:02.655Z,13.30
2019-04-23T14:10:55.719Z,10.80
2019-04-23T14:16:48.812Z,10.20
2019-04-23T14:19:16.492Z,10.07
2019-04-23T14:22:43.391Z,13.87
2019-04-23T14:25:07.818Z,10.53
2019-04-23T14:28:11.636Z,13.67
2019-04-23T14:30:53.414Z,9.03
2019-04-23T14:34:00.086Z,12.20
2019-04-23T14:42:20.971Z,14.00
2019-04-23T14:45:23.209Z,10.23
2019-04-23T14:47:59.094Z,11.40
2019-04-23T14:51:09.867Z,11.27
2019-04-23T14:53:40.533Z,9.50
2019-04-23T14:56:28.795Z,12.10
2019-04-23T15:01:36.090Z,15.97
2019-04-23T15:04:28.628Z,14.03
2019-04-23T15:10:18.604Z,10.97
2019-04-23T15:13:01.830Z,15.60
2019-04-23T15:15:55.642Z,15.37
2019-04-23T15:19:21.694Z,21.70
2019-04-23T15:25:06.983Z,9.40
2019-04-23T15:27:29.583Z,11.30
2019-04-23T15:30:29.507Z,8.30
2019-04-23T15:33:35.261Z,10.80
2019-04-23T15:36:32.520Z,21.57
2019-04-23T15:39:21.074Z,8.77
2019-04-23T15:42:09.295Z,12.13
2019-04-23T15:44:49.050Z,14.30
2019-04-23T15:47:45.740Z,9.63
2019-04-23T15:50:32.231Z,12.03
2019-04-23T15:53:11.230Z,10.70
2019-04-23T15:56:18.280Z,12.10
2019-04-23T15:59:25.923Z,11.47
2019-04-23T16:01:39.481Z,13.30
2019-04-23T16:04:15.340Z,11.67
2019-04-23T16:06:45.693Z,13.43
2019-04-23T16:10:12.604Z,12.40
2019-04-23T16:12:56.336Z,10.73
2019-04-23T16:15:43.377Z,12.40
2019-04-23T16:19:07.597Z,9.93
2019-04-23T16:24:51.817Z,10.97
2019-04-23T16:27:48.993Z,11.87
2019-04-23T16:33:20.159Z,12.60
2019-04-23T16:38:58.613Z,10.67
2019-04-23T16:41:54.619Z,24.80
2019-04-23T16:44:46.498Z,18.67
2019-04-23T16:47:28.146Z,41.30
2019-04-23T16:50:56.162Z,14.70
2019-04-23T16:53:20.947Z,14.23
2019-04-23T16:56:13.412Z,20.67
2019-04-23T16:59:02.436Z,15.07
2019-04-23T17:01:52.373Z,41.40
2019-04-23T17:04:39.272Z,47.23
2019-04-23T17:07:27.270Z,31.00
2019-04-23T17:10:23.242Z,23.40
2019-04-23T17:16:06.709Z,14.90
2019-04-23T17:21:25.169Z,21.27
2019-04-23T17:24:21.104Z,15.80
2019-04-23T17:27:16.608Z,15.40
2019-04-23T17:29:57.838Z,10.20
2019-04-23T17:32:57.223Z,10.50
2019-04-23T17:36:12.086Z,11.77
2019-04-23T17:38:51.432Z,14.90
2019-04-23T17:42:01.007Z,13.07
2019-04-23T17:45:09.968Z,10.70
2019-04-23T17:47:52.413Z,11.90
2019-04-23T17:53:54.440Z,11.23
2019-04-23T17:56:55.848Z,11.87
2019-04-23T18:00:25.495Z,14.77
2019-04-23T18:05:37.390Z,11.30
2019-04-23T18:08:27.133Z,11.83
2019-04-23T18:11:16.212Z,10.03
2019-04-23T18:17:07.558Z,18.73
2019-04-23T18:20:14.870Z,11.40
2019-04-23T18:26:02.096Z,13.50
2019-04-23T18:29:00.324Z,11.80
2019-04-23T18:31:59.740Z,14.00
2019-04-23T18:35:04.279Z,11.33
2019-04-23T18:40:21.582Z,13.60
2019-04-23T18:43:24.004Z,11.33
2019-04-23T18:46:08.701Z,14.00
2019-04-23T18:51:34.476Z,11.20
2019-04-23T18:54:22.359Z,15.20
2019-04-23T18:57:12.644Z,12.13
2019-04-23T19:00:07.481Z,11.57
2019-04-23T19:03:21.152Z,20.10
2019-04-23T19:06:23.874Z,11.40
2019-04-23T19:09:23.883Z,17.23
2019-04-23T19:12:34.898Z,24.27
2019-04-23T19:15:21.550Z,13.73
2019-04-23T19:17:56.495Z,15.47
2019-04-23T19:20:37.925Z,16.10
2019-04-23T19:23:16.372Z,14.30
2019-04-23T19:29:11.574Z,13.90
2019-04-23T19:34:46.913Z,12.80
2019-04-23T19:37:49.478Z,12.40
2019-04-23T19:40:37.999Z,14.47
2019-04-23T19:43:19.847Z,12.93
2019-04-23T19:46:33.959Z,14.40
2019-04-23T19:49:05.752Z,15.10
2019-04-23T19:51:56.732Z,16.13
2019-04-23T19:54:52.614Z,14.30
2019-04-23T19:57:49.282Z,14.07
2019-04-23T20:00:31.189Z,11.43
2019-04-23T20:03:26.648Z,16.30
2019-04-23T20:14:41.706Z,13.73
2019-04-23T20:20:18.222Z,12.47
2019-04-23T20:23:13.266Z,14.33
2019-04-23T20:26:15.648Z,11.47
2019-04-23T20:38:03.038Z,14.00
2019-04-23T20:40:33.017Z,13.20
2019-04-23T20:43:18.959Z,12.17
2019-04-23T20:46:06.570Z,15.60
2019-04-23T20:49:00.556Z,15.77
2019-04-23T21:00:43.247Z,21.17
2019-04-23T21:03:52.244Z,13.10
2019-04-23T21:06:47.039Z,16.50
2019-04-23T21:12:04.805Z,19.67
2019-04-23T21:15:05.411Z,14.70
2019-04-23T21:20:53.429Z,12.27
2019-04-23T21:26:20.090Z,17.20
2019-04-23T21:29:09.125Z,14.20
2019-04-23T21:32:08.818Z,16.60
2019-04-23T21:34:56.444Z,13.10
2019-04-23T21:37:55.936Z,18.07
2019-04-23T21:41:00.923Z,17.73
2019-04-23T21:46:36.815Z,16.47
2019-04-23T21:49:25.130Z,13.40
2019-04-23T21:52:11.531Z,18.53
2019-04-23T21:55:03.707Z,20.37
2019-04-23T21:58:01.365Z,16.70
2019-04-23T22:00:51.952Z,18.43
2019-04-23T22:04:01.052Z,11.83
2019-04-23T22:06:39.597Z,18.80
2019-04-23T22:20:43.692Z,14.00
2019-04-23T22:23:48.243Z,15.87
2019-04-23T22:26:34.711Z,16.13
2019-04-23T22:29:18.365Z,20.07
2019-04-23T22:32:00.157Z,18.33
2019-04-23T22:34:57.199Z,14.97
2019-04-23T22:37:53.917Z,28.17
2019-04-23T22:40:36.248Z,15.40
2019-04-23T22:55:17.547Z,17.20
2019-04-23T23:01:23.748Z,20.87
2019-04-23T23:04:15.182Z,15.33
2019-04-23T23:10:00.561Z,13.40
2019-04-23T23:12:51.304Z,21.60
2019-04-23T23:21:13.392Z,17.30
2019-04-23T23:27:02.412Z,17.40
2019-04-23T23:30:01.065Z,21.73
2019-04-23T23:32:40.480Z,17.13
2019-04-23T23:35:28.319Z,13.27
2019-04-23T23:38:25.526Z,18.70
2019-04-23T23:44:20.925Z,14.47
2019-04-23T23:47:01.715Z,15.57
2019-04-23T23:49:48.526Z,13.43
2019-04-23T23:52:40.275Z,15.30
2019-04-23T23:55:07.861Z,12.93
2019-04-23T23:58:02.911Z,17.77
